Spirit Of Tasmania II — VNSZ — position and weather

sailwx.info

Track history (hours):
 
Tides and Currents Weather Stations Pressure Air Temp Water Temp Dewpoint Dewpoint Depression Visibility Wind Speed Wind Dir Waves Ship Positions

Spirit Of Tasmania II

Last reported at 2020-Oct-01 07:00 UTC. Time now 2020-Oct-01 08:18 UTC.
Position S 37°48' E 144°54'.

Length 194.3 m; beam 25 m; draft 6.2 m.

Type: Ship. MMSI: 503433000.

Wind from 330 at 15 knots

Barometer 1016.1 mb
Air temperature 18.3 ° C
Water temperature 13.3 ° C

Date/timePositionNaut miles runAvg speedWind from/ knotsBaromVisibWave heightAir tempDewpointWater temp
2020-Oct-01 07:00S 37°48' E 144°54'0 0.0 330 / 151016.1 18.3 13.3
2020-Oct-01 06:00S 37°48' E 144°54'0 0.0 330 / 101016.0 18.3 13.9
2020-Oct-01 05:00S 37°48' E 144°54'0 0.0 160 / 71016.4 14.1 13.5
2020-Oct-01 04:00S 37°48' E 144°54'0 0.0 280 / 91016.8 14.8 13.3
2020-Oct-01 03:00S 37°48' E 144°54'0 0.0 300 / 121017.4 15.0 13.3
2020-Oct-01 02:00S 37°48' E 144°54'0 0.0 300 / 91017.0 14.7 13.1
2020-Oct-01 01:00S 37°48' E 144°54'0 0.0 270 / 8 14.4 13.0
2020-Oct-01 00:00S 37°48' E 144°54'0 0.0 280 / 10 13.0 13.2
2020-Sep-30 23:00S 37°48' E 144°54'0 0.0 290 / 10 11.9 13.1
2020-Sep-30 22:00S 37°48' E 144°54'0 0.0 310 / 11 10.5 13.2
2020-Sep-30 21:00S 37°48' E 144°54'1212.0 320 / 8 9.4 13.3
2020-Sep-30 20:00S 38°00' E 144°54'1818.0 300 / 12 10.0 13.0
2020-Sep-30 19:00S 38°18' E 144°54'1414.1 280 / 22 9.8 13.2
2020-Sep-30 18:00S 38°18' E 144°36'2020.3 290 / 20 9.6 13.2
2020-Sep-30 17:00S 38°36' E 144°48'2020.3 270 / 29 12.0 13.2
2020-Sep-30 16:00S 38°54' E 145°00'2020.3 270 / 31 11.8 13.2
2020-Sep-30 15:00S 39°12' E 145°12'2020.3 260 / 34 12.4 13.1
2020-Sep-30 14:00S 39°30' E 145°24'2625.7 260 / 36 12.5 13.0
2020-Sep-30 13:00S 39°54' E 145°36'2020.2 280 / 25 12.1 12.6
2020-Sep-30 12:00S 40°12' E 145°48'2827.6 310 / 23 12.2
2020-Sep-30 11:00S 40°36' E 146°06'1919.5 290 / 27 11.7 12.6
2020-Sep-30 10:00S 40°54' E 146°14'6425.2
2020-Sep-30 10:00S 41°00' E 146°18'1312.8 320 / 31 11.0 12.8
2020-Sep-30 09:00S 41°12' E 146°24'0 0.0 360 / 17 12.4 12.8
2020-Sep-30 08:00S 41°12' E 146°24'0 0.0 360 / 14 12.4 12.6
2020-Sep-30 07:00S 41°12' E 146°24'0 0.0 020 / 11 12.8 12.6
2020-Sep-30 06:00S 41°12' E 146°24'0 0.0 010 / 9 13.0 12.7
2020-Sep-30 05:00S 41°12' E 146°24'0 0.0 040 / 6 13.0 12.6
2020-Sep-30 04:00S 41°12' E 146°24'0 0.0 050 / 3 12.7 12.6
2020-Sep-30 03:00S 41°12' E 146°24'0 0.0 080 / 2 12.5 12.5
2020-Sep-30 02:00S 41°12' E 146°24'0 0.0 060 / 6 12.5 12.5
2020-Sep-29 23:00S 41°12' E 146°24'0 0.0 160 / 3 11.6 12.5
2020-Sep-29 21:00S 41°12' E 146°24'6 6.0 140 / 4 10.8
2020-Sep-29 20:00S 41°06' E 146°24'2020.2 160 / 9 10.8 12.2
2020-Sep-29 19:00S 40°48' E 146°12'2020.2 110 / 13 12.0 12.4
2020-Sep-29 18:00S 40°30' E 146°00'2020.2 060 / 15 12.4 12.6
2020-Sep-29 17:00S 40°12' E 145°48'717.1 040 / 18 12.4 12.5
2020-Sep-29 16:36S 40°07' E 145°42'1320.9
2020-Sep-29 16:00S 39°56' E 145°34'4617.2
2020-Sep-29 16:00S 39°54' E 145°30'1918.6 030 / 18 12.9 12.8
2020-Sep-29 15:00S 39°36' E 145°24'1020.0 040 / 20 12.9 13.1
2020-Sep-29 14:30S 39°28' E 145°16'1325.4
2020-Sep-29 14:00S 39°18' E 145°06'3305.5 050 / 21 13.0
2020-Sep-29 13:59S 39°18' E 145°10'2020.2
2020-Sep-29 13:00S 39°00' E 145°00'2625.8 040 / 18 13.4 13.4
2020-Sep-29 12:00S 38°36' E 144°48'2020.3 040 / 11 15.5 13.4
2020-Sep-29 11:00S 38°18' E 144°36'1414.1 020 / 18 15.4 13.5
2020-Sep-29 10:00S 38°18' E 144°54'2424.0 010 / 13 15.7 13.6
2020-Sep-29 09:00S 37°54' E 144°54'6 6.0 010 / 11 17.3 14.3
2020-Sep-29 08:00S 37°48' E 144°54'0 0.0 360 / 9 18.1 13.4
2020-Sep-29 07:00S 37°48' E 144°54'0 0.0 360 / 14 18.7 13.7
2020-Sep-29 06:00S 37°48' E 144°54'0 0.0 350 / 15 19.1 14.7
2020-Sep-29 05:00S 37°48' E 144°54'0 0.0 350 / 18 19.6 13.0
2020-Sep-29 04:00S 37°48' E 144°54'0 0.0 360 / 16 19.2 13.1
2020-Sep-29 03:00S 37°48' E 144°54'0 0.0 020 / 13 18.8 13.1
2020-Sep-29 02:00S 37°48' E 144°54'0 0.0 010 / 15 17.8 13.1
2020-Sep-29 01:00S 37°48' E 144°54'0 0.0 060 / 7 15.8 13.2
2020-Sep-29 00:00S 37°48' E 144°54'0 0.0 080 / 4 13.8 13.6
2020-Sep-28 23:00S 37°48' E 144°54'0 0.0 100 / 7 10.1 13.7
2020-Sep-28 22:00S 37°48' E 144°54'0 0.0 050 / 2 8.1 12.9
2020-Sep-28 21:00S 37°48' E 144°54'1212.0 360 / 4 5.8 13.2
2020-Sep-28 20:00S 38°00' E 144°54'1818.0 020 / 9 7.4 12.8
2020-Sep-28 19:00S 38°18' E 144°54'1515.3 080 / 13 8.0 13.0
2020-Sep-28 18:00S 38°24' E 144°36'1515.2 070 / 8 9.4 13.0
2020-Sep-28 17:00S 38°36' E 144°48'2020.3 080 / 13 9.8 13.0
2020-Sep-28 16:00S 38°54' E 145°00'2020.3 030 / 6 9.8 13.2
2020-Sep-28 15:00S 39°12' E 145°12'2020.3 010 / 5 10.0 13.1
2020-Sep-28 14:00S 39°30' E 145°24'2020.2 320 / 3 10.5 13.0
2020-Sep-28 13:00S 39°48' E 145°36'2020.2 270 / 8 10.7 12.8
2020-Sep-28 12:00S 40°06' E 145°48'1118.5 260 / 14 10.8
2020-Sep-28 11:24S 40°17' E 145°51'1025.3
2020-Sep-28 11:00S 40°26' E 145°57'5424.9
2020-Sep-28 11:00S 40°30' E 146°00'816.1 260 / 12 12.1 12.7
2020-Sep-28 10:30S 40°37' E 146°03'1834.7
2020-Sep-28 10:00S 40°54' E 146°12'2020.1 310 / 8 13.1 12.7
2020-Sep-28 09:00S 41°12' E 146°24'0 0.0 070 / 4 11.9 14.4
2020-Sep-28 08:00S 41°12' E 146°24'0 0.0 030 / 3 13.7 12.2
2020-Sep-28 07:00S 41°12' E 146°24'0 0.0 320 / 8 13.7 12.2
2020-Sep-28 06:00S 41°12' E 146°24'0 0.0 320 / 11 13.4 12.1
2020-Sep-28 05:00S 41°12' E 146°24'0 0.0 320 / 11 14.3 12.1
2020-Sep-28 04:00S 41°12' E 146°24'0 0.0 330 / 11 13.3 12.1
2020-Sep-28 03:00S 41°12' E 146°24'223.8 340 / 11 13.5 12.0
2020-Sep-28 02:55S 41°11' E 146°22'2 2.1
2020-Sep-28 02:00S 41°12' E 146°24'2 3.2 010 / 8 14.0 11.9
2020-Sep-28 01:24S 41°11' E 146°22'0 0.0
2020-Sep-28 01:00S 41°11' E 146°22'2362.3
2020-Sep-28 01:00S 41°12' E 146°24'0 0.0 350 / 6 12.3 12.0
2020-Sep-28 00:00S 41°12' E 146°24'0 0.0 170 / 5 12.6 12.0
2020-Sep-27 22:00S 41°12' E 146°24'2122.7 150 / 2 8.5 11.9
2020-Sep-27 21:59S 41°11' E 146°22'2 1.9
2020-Sep-27 21:00S 41°12' E 146°24'0 0.0 170 / 1 4.5 11.9
2020-Sep-27 20:00S 41°12' E 146°24'261.3 170 / 3 4.0 11.9
2020-Sep-27 19:58S 41°11' E 146°22'2 2.0
2020-Sep-27 19:00S 41°12' E 146°24'250.9 160 / 4 5.3 11.9
2020-Sep-27 18:57S 41°11' E 146°22'2 2.0
2020-Sep-27 18:00S 41°12' E 146°24'0 0.0 170 / 7 8.0 11.8
2020-Sep-27 17:00S 41°12' E 146°24'236.7 190 / 9 8.3 11.6
2020-Sep-27 16:56S 41°11' E 146°22'2 2.0
2020-Sep-27 16:00S 41°12' E 146°24'0 0.0 200 / 17 8.5 11.5
2020-Sep-27 15:00S 41°12' E 146°24'0 0.0 200 / 15 8.6 11.5
2020-Sep-27 14:00S 41°12' E 146°24'225.7 200 / 13 8.4 11.6
2020-Sep-27 13:55S 41°11' E 146°22'2 2.1
2020-Sep-27 13:00S 41°12' E 146°24'223.4 220 / 9 8.7 11.7
2020-Sep-27 12:55S 41°11' E 146°22'2 2.1
2020-Sep-27 12:00S 41°12' E 146°24'0 0.0 230 / 14 8.7 11.9
2020-Sep-27 11:00S 41°12' E 146°24'0 0.0 220 / 15 9.2 12.0
2020-Sep-27 10:00S 41°12' E 146°24'2624.6 250 / 7 9.1 12.1
2020-Sep-27 09:59S 41°11' E 146°22'2 1.9
2020-Sep-27 09:00S 41°12' E 146°24'0 0.0 240 / 7 9.9 12.1
2020-Sep-27 08:00S 41°12' E 146°24'2 3.7 250 / 12 11.3 11.9
2020-Sep-27 07:28S 41°11' E 146°22'2 4.0
2020-Sep-27 07:00S 41°12' E 146°24'0 0.0 240 / 13 12.2 11.9
2020-Sep-27 06:00S 41°12' E 146°24'0 0.0 240 / 12 12.7 11.8
2020-Sep-27 05:00S 41°12' E 146°24'0 0.0 250 / 14 12.4 11.6
2020-Sep-27 04:00S 41°12' E 146°24'0 0.0 240 / 10 12.7 11.6
2020-Sep-27 03:00S 41°12' E 146°24'235.4 230 / 14 12.0 11.6
2020-Sep-27 02:56S 41°11' E 146°22'2 2.0
2020-Sep-27 02:00S 41°12' E 146°24'0 0.0 220 / 12 11.7 11.4
2020-Sep-27 01:00S 41°12' E 146°24'0 0.0 210 / 10 11.0 11.4
2020-Sep-27 00:00S 41°12' E 146°24'0 0.0 230 / 8 10.6 11.7
2020-Sep-26 23:00S 41°12' E 146°24'223.1 260 / 6 8.9 11.8
2020-Sep-26 22:55S 41°11' E 146°22'2 2.1
2020-Sep-26 22:00S 41°12' E 146°24'0 0.0 280 / 5 7.8 11.9
2020-Sep-26 21:00S 41°12' E 146°24'6 6.0 270 / 5 5.9 12.1
2020-Sep-26 20:00S 41°06' E 146°24'1817.9 250 / 17 6.7 11.9
2020-Sep-26 19:01S 40°51' E 146°12'3185.1
2020-Sep-26 19:00S 40°48' E 146°12'2322.6 230 / 31 7.5
2020-Sep-26 18:00S 40°30' E 145°54'2625.7 210 / 35 8.1 12.3
2020-Sep-26 17:00S 40°06' E 145°42'2020.2 220 / 32 8.6 12.3
2020-Sep-26 16:00S 39°48' E 145°30'1918.6 210 / 33 9.0 12.8
2020-Sep-26 15:00S 39°30' E 145°24'2020.3 210 / 32 9.6 13.0
2020-Sep-26 14:00S 39°12' E 145°12'2020.3 210 / 36 10.4 13.0
2020-Sep-26 13:00S 38°54' E 145°00'1515.2 220 / 34 10.5 13.0
2020-Sep-26 12:00S 38°42' E 144°48'2625.8 240 / 35 10.8 13.0
2020-Sep-26 11:00S 38°18' E 144°36'1414.1 270 / 29 10.6 13.0
2020-Sep-26 10:00S 38°18' E 144°54'1818.0 260 / 35 10.4 13.2
2020-Sep-26 09:00S 38°00' E 144°54'1212.0 270 / 26 10.9 13.2
2020-Sep-26 08:00S 37°48' E 144°54'0 0.0 260 / 14 10.8 13.1
2020-Sep-26 07:00S 37°48' E 144°54'0 0.0 270 / 18 12.4 13.1
2020-Sep-26 06:00S 37°48' E 144°54'0 0.0 240 / 11 11.9 13.0
2020-Sep-26 05:00S 37°48' E 144°54'0 0.0 230 / 9 10.9 12.9
2020-Sep-26 04:00S 37°48' E 144°54'0 0.0 210 / 8 11.7 12.8
2020-Sep-26 03:00S 37°48' E 144°54'0 0.0 250 / 9 11.4 12.6
2020-Sep-26 02:00S 37°48' E 144°54'0 0.0 250 / 13 11.1 12.5
2020-Sep-26 01:00S 37°48' E 144°54'0 0.0 250 / 15 10.5 12.4
2020-Sep-26 00:00S 37°48' E 144°54'0 0.0 250 / 12 10.6 12.4
2020-Sep-25 23:00S 37°48' E 144°54'0 0.0 240 / 17 10.2 12.4
2020-Sep-25 22:00S 37°48' E 144°54'0 0.0 260 / 17 8.9 12.5
2020-Sep-25 21:00S 37°48' E 144°54'6 6.0 260 / 20 8.4 13.1
2020-Sep-25 20:00S 37°54' E 144°54'2424.0 220 / 34 9.7 12.9
2020-Sep-25 19:00S 38°18' E 144°54'1414.1 210 / 28 10.6
2020-Sep-25 18:00S 38°18' E 144°36'2020.3 210 / 32 10.8 13.0
2020-Sep-25 17:00S 38°36' E 144°48'2020.3 210 / 32 10.9 12.9
2020-Sep-25 16:00S 38°54' E 145°00'2020.3 230 / 33 9.4 13.1
2020-Sep-25 15:00S 39°12' E 145°12'2020.3 240 / 23 10.0 13.2
2020-Sep-25 14:00S 39°30' E 145°24'1918.6 250 / 26 10.3 13.1
2020-Sep-25 13:00S 39°48' E 145°30'2322.7 240 / 24 9.9 12.8
2020-Sep-25 12:00S 40°06' E 145°48'2625.7 230 / 14 9.0 12.4
2020-Sep-25 11:00S 40°30' E 146°00'2625.7 140 / 7 9.6 12.4
2020-Sep-25 10:00S 40°54' E 146°12'2020.1 130 / 11 8.7 12.3
2020-Sep-25 09:00S 41°12' E 146°24'0 0.0 170 / 7 7.7 12.7
2020-Sep-25 08:00S 41°12' E 146°24'0 0.0 180 / 10 8.2 12.0
2020-Sep-25 07:00S 41°12' E 146°24'0 0.0 170 / 9 8.6 12.0
2020-Sep-25 06:00S 41°12' E 146°24'0 0.0 170 / 10 8.5 11.9
2020-Sep-25 05:00S 41°12' E 146°24'0 0.0 140 / 9 8.1 11.9
2020-Sep-25 04:00S 41°12' E 146°24'0 0.0 180 / 4 8.4
2020-Sep-25 03:00S 41°12' E 146°24'0 0.0 080 / 3 8.6 11.8
2020-Sep-25 02:00S 41°12' E 146°24'0 0.0 030 / 9 8.7 11.8
2020-Sep-25 01:00S 41°12' E 146°24'0 0.0 040 / 7 8.5 11.8
2020-Sep-25 00:00S 41°12' E 146°24'0 0.0 050 / 8 9.0 11.9
2020-Sep-24 23:00S 41°12' E 146°24'0 0.0 030 / 11 9.7 11.9
2020-Sep-24 22:00S 41°12' E 146°24'6 3.0 350 / 10 9.3 12.1
2020-Sep-24 20:00S 41°06' E 146°24'2020.2 050 / 14 9.7
2020-Sep-24 19:00S 40°48' E 146°12'2020.2 040 / 23 9.6 12.3
2020-Sep-24 18:00S 40°30' E 146°00'1515.1 010 / 25 10.2
2020-Sep-24 17:00S 40°18' E 145°48'2020.2 360 / 29 10.2 12.4
2020-Sep-24 16:00S 40°00' E 145°36'2625.7 360 / 28 11.1 12.9
2020-Sep-24 15:00S 39°36' E 145°24'2020.2 360 / 28 11.3 13.1
2020-Sep-24 14:00S 39°18' E 145°12'5326.7 340 / 28 11.0 13.2
2020-Sep-24 12:00S 38°30' E 144°42'1312.9 350 / 26 10.6 13.2
2020-Sep-24 11:00S 38°18' E 144°48'1312.9 010 / 39 12.2 13.4
2020-Sep-24 10:00S 38°06' E 144°54'1818.0 360 / 18 12.0 13.3
2020-Sep-24 09:00S 37°48' E 144°54'0 0.0 360 / 13 12.4 14.5
2020-Sep-24 08:00S 37°48' E 144°54'0 0.0 010 / 14 12.8 13.3
2020-Sep-24 07:00S 37°48' E 144°54'0 0.0 350 / 14 13.4 13.3
2020-Sep-24 06:00S 37°48' E 144°54'0 0.0 360 / 13 13.4 13.5
2020-Sep-24 05:00S 37°48' E 144°54'0 0.0 350 / 13 13.5 13.5
2020-Sep-24 04:00S 37°48' E 144°54'0 0.0 330 / 12 13.2 13.5
2020-Sep-24 03:00S 37°48' E 144°54'0 0.0 310 / 9 13.2 13.4
2020-Sep-24 02:00S 37°48' E 144°54'0 0.0 300 / 12 12.0 13.3
2020-Sep-24 01:00S 37°48' E 144°54'0 0.0 300 / 15 11.8
2020-Sep-24 00:00S 37°48' E 144°54'0 0.0 300 / 13 10.8 13.2
2020-Sep-23 23:00S 37°48' E 144°54'0 0.0 310 / 11 9.9 13.2
2020-Sep-23 22:00S 37°48' E 144°54'0 0.0 320 / 8 8.7 13.3
2020-Sep-23 21:00S 37°48' E 144°54'6 6.0 320 / 9 8.0 13.3
2020-Sep-23 20:00S 37°54' E 144°54'1818.0 300 / 18 8.5
2020-Sep-23 19:00S 38°12' E 144°54'1515.4 290 / 25 8.2 13.5
2020-Sep-23 18:00S 38°18' E 144°36'2020.3 300 / 22 7.9 13.1
2020-Sep-23 17:00S 38°36' E 144°48'2020.3 260 / 23 9.4 12.9
2020-Sep-23 16:00S 38°54' E 145°00'2020.3 260 / 32 9.9 13.0
2020-Sep-23 15:00S 39°12' E 145°12'2020.3 250 / 27 10.3 13.2
2020-Sep-23 14:00S 39°30' E 145°24'2020.2 260 / 31 10.5 13.1
2020-Sep-23 13:00S 39°48' E 145°36'2625.7 260 / 26 10.2 12.8
2020-Sep-23 12:00S 40°12' E 145°48'1818.3 250 / 26 10.6 12.5
2020-Sep-23 11:00S 40°28' E 145°59'2154.7
2020-Sep-23 11:00S 40°30' E 146°00'1019.9 250 / 29 10.9 12.6
2020-Sep-23 10:30S 40°39' E 146°05'1631.2
2020-Sep-23 10:00S 40°54' E 146°12'2020.1 270 / 27 11.4
2020-Sep-23 09:00S 41°12' E 146°24'0 0.0 250 / 10 12.1 14.2
2020-Sep-23 08:00S 41°12' E 146°24'0 0.0 260 / 10 13.2 12.5
2020-Sep-23 07:00S 41°12' E 146°24'0 0.0 230 / 14 14.4 12.5
2020-Sep-23 06:00S 41°12' E 146°24'0 0.0 230 / 14 14.6
2020-Sep-23 05:00S 41°12' E 146°24'0 0.0 260 / 18 15.0 12.4
2020-Sep-23 04:00S 41°12' E 146°24'0 0.0 250 / 15 15.0 12.4
2020-Sep-23 03:00S 41°12' E 146°24'2 1.9 260 / 17 14.4 12.4
2020-Sep-23 02:00S 41°11' E 146°22'2624.6
2020-Sep-23 02:00S 41°12' E 146°24'0 0.0 270 / 16 14.4 12.5
2020-Sep-23 01:00S 41°12' E 146°24'2 0.9 270 / 16 14.5 12.5
2020-Sep-22 22:58S 41°11' E 146°22'44 1.2
2020-Sep-21 10:30S 40°30' E 145°59'4422.1
2020-Sep-21 08:30S 41°11' E 146°22'0 0.0
2020-Sep-21 07:30S 41°11' E 146°22'  
Track history (hours):
 
Tides and Currents Weather Stations Pressure Air Temp Water Temp Dewpoint Dewpoint Depression Visibility Wind Speed Wind Dir Waves Ship Positions

Spirit Of Tasmania II

Last reported at 2020-Oct-01 07:00 UTC. Time now 2020-Oct-01 08:18 UTC.
Position S 37°48' E 144°54'.

Length 194.3 m; beam 25 m; draft 6.2 m.

Type: Ship. MMSI: 503433000.

Wind from 330 at 15 knots

Barometer 1016.1 mb
Air temperature 18.3 ° C
Water temperature 13.3 ° C

Date/timePositionNaut miles runAvg speedWind from/ knotsBaromVisibWave heightAir tempDewpointWater temp
2020-Oct-01 07:00S 37°48' E 144°54'0 0.0 330 / 151016.1 18.3 13.3
2020-Oct-01 06:00S 37°48' E 144°54'0 0.0 330 / 101016.0 18.3 13.9
2020-Oct-01 05:00S 37°48' E 144°54'0 0.0 160 / 71016.4 14.1 13.5
2020-Oct-01 04:00S 37°48' E 144°54'0 0.0 280 / 91016.8 14.8 13.3
2020-Oct-01 03:00S 37°48' E 144°54'0 0.0 300 / 121017.4 15.0 13.3
2020-Oct-01 02:00S 37°48' E 144°54'0 0.0 300 / 91017.0 14.7 13.1
2020-Oct-01 01:00S 37°48' E 144°54'0 0.0 270 / 8 14.4 13.0
2020-Oct-01 00:00S 37°48' E 144°54'0 0.0 280 / 10 13.0 13.2
2020-Sep-30 23:00S 37°48' E 144°54'0 0.0 290 / 10 11.9 13.1
2020-Sep-30 22:00S 37°48' E 144°54'0 0.0 310 / 11 10.5 13.2
2020-Sep-30 21:00S 37°48' E 144°54'1212.0 320 / 8 9.4 13.3
2020-Sep-30 20:00S 38°00' E 144°54'1818.0 300 / 12 10.0 13.0
2020-Sep-30 19:00S 38°18' E 144°54'1414.1 280 / 22 9.8 13.2
2020-Sep-30 18:00S 38°18' E 144°36'2020.3 290 / 20 9.6 13.2
2020-Sep-30 17:00S 38°36' E 144°48'2020.3 270 / 29 12.0 13.2
2020-Sep-30 16:00S 38°54' E 145°00'2020.3 270 / 31 11.8 13.2
2020-Sep-30 15:00S 39°12' E 145°12'2020.3 260 / 34 12.4 13.1
2020-Sep-30 14:00S 39°30' E 145°24'2625.7 260 / 36 12.5 13.0
2020-Sep-30 13:00S 39°54' E 145°36'2020.2 280 / 25 12.1 12.6
2020-Sep-30 12:00S 40°12' E 145°48'2827.6 310 / 23 12.2
2020-Sep-30 11:00S 40°36' E 146°06'1919.5 290 / 27 11.7 12.6
2020-Sep-30 10:00S 40°54' E 146°14'6425.2
2020-Sep-30 10:00S 41°00' E 146°18'1312.8 320 / 31 11.0 12.8
2020-Sep-30 09:00S 41°12' E 146°24'0 0.0 360 / 17 12.4 12.8
2020-Sep-30 08:00S 41°12' E 146°24'0 0.0 360 / 14 12.4 12.6
2020-Sep-30 07:00S 41°12' E 146°24'0 0.0 020 / 11 12.8 12.6
2020-Sep-30 06:00S 41°12' E 146°24'0 0.0 010 / 9 13.0 12.7
2020-Sep-30 05:00S 41°12' E 146°24'0 0.0 040 / 6 13.0 12.6
2020-Sep-30 04:00S 41°12' E 146°24'0 0.0 050 / 3 12.7 12.6
2020-Sep-30 03:00S 41°12' E 146°24'0 0.0 080 / 2 12.5 12.5
2020-Sep-30 02:00S 41°12' E 146°24'0 0.0 060 / 6 12.5 12.5
2020-Sep-29 23:00S 41°12' E 146°24'0 0.0 160 / 3 11.6 12.5
2020-Sep-29 21:00S 41°12' E 146°24'6 6.0 140 / 4 10.8
2020-Sep-29 20:00S 41°06' E 146°24'2020.2 160 / 9 10.8 12.2
2020-Sep-29 19:00S 40°48' E 146°12'2020.2 110 / 13 12.0 12.4
2020-Sep-29 18:00S 40°30' E 146°00'2020.2 060 / 15 12.4 12.6
2020-Sep-29 17:00S 40°12' E 145°48'717.1 040 / 18 12.4 12.5
2020-Sep-29 16:36S 40°07' E 145°42'1320.9
2020-Sep-29 16:00S 39°56' E 145°34'4617.2
2020-Sep-29 16:00S 39°54' E 145°30'1918.6 030 / 18 12.9 12.8
2020-Sep-29 15:00S 39°36' E 145°24'1020.0 040 / 20 12.9 13.1
2020-Sep-29 14:30S 39°28' E 145°16'1325.4
2020-Sep-29 14:00S 39°18' E 145°06'3305.5 050 / 21 13.0
2020-Sep-29 13:59S 39°18' E 145°10'2020.2
2020-Sep-29 13:00S 39°00' E 145°00'2625.8 040 / 18 13.4 13.4
2020-Sep-29 12:00S 38°36' E 144°48'2020.3 040 / 11 15.5 13.4
2020-Sep-29 11:00S 38°18' E 144°36'1414.1 020 / 18 15.4 13.5
2020-Sep-29 10:00S 38°18' E 144°54'2424.0 010 / 13 15.7 13.6
2020-Sep-29 09:00S 37°54' E 144°54'6 6.0 010 / 11 17.3 14.3
2020-Sep-29 08:00S 37°48' E 144°54'0 0.0 360 / 9 18.1 13.4
2020-Sep-29 07:00S 37°48' E 144°54'0 0.0 360 / 14 18.7 13.7
2020-Sep-29 06:00S 37°48' E 144°54'0 0.0 350 / 15 19.1 14.7
2020-Sep-29 05:00S 37°48' E 144°54'0 0.0 350 / 18 19.6 13.0
2020-Sep-29 04:00S 37°48' E 144°54'0 0.0 360 / 16 19.2 13.1
2020-Sep-29 03:00S 37°48' E 144°54'0 0.0 020 / 13 18.8 13.1
2020-Sep-29 02:00S 37°48' E 144°54'0 0.0 010 / 15 17.8 13.1
2020-Sep-29 01:00S 37°48' E 144°54'0 0.0 060 / 7 15.8 13.2
2020-Sep-29 00:00S 37°48' E 144°54'0 0.0 080 / 4 13.8 13.6
2020-Sep-28 23:00S 37°48' E 144°54'0 0.0 100 / 7 10.1 13.7
2020-Sep-28 22:00S 37°48' E 144°54'0 0.0 050 / 2 8.1 12.9
2020-Sep-28 21:00S 37°48' E 144°54'1212.0 360 / 4 5.8 13.2
2020-Sep-28 20:00S 38°00' E 144°54'1818.0 020 / 9 7.4 12.8
2020-Sep-28 19:00S 38°18' E 144°54'1515.3 080 / 13 8.0 13.0
2020-Sep-28 18:00S 38°24' E 144°36'1515.2 070 / 8 9.4 13.0
2020-Sep-28 17:00S 38°36' E 144°48'2020.3 080 / 13 9.8 13.0
2020-Sep-28 16:00S 38°54' E 145°00'2020.3 030 / 6 9.8 13.2
2020-Sep-28 15:00S 39°12' E 145°12'2020.3 010 / 5 10.0 13.1
2020-Sep-28 14:00S 39°30' E 145°24'2020.2 320 / 3 10.5 13.0
2020-Sep-28 13:00S 39°48' E 145°36'2020.2 270 / 8 10.7 12.8
2020-Sep-28 12:00S 40°06' E 145°48'1118.5 260 / 14 10.8
2020-Sep-28 11:24S 40°17' E 145°51'1025.3
2020-Sep-28 11:00S 40°26' E 145°57'5424.9
2020-Sep-28 11:00S 40°30' E 146°00'816.1 260 / 12 12.1 12.7
2020-Sep-28 10:30S 40°37' E 146°03'1834.7
2020-Sep-28 10:00S 40°54' E 146°12'2020.1 310 / 8 13.1 12.7
2020-Sep-28 09:00S 41°12' E 146°24'0 0.0 070 / 4 11.9 14.4
2020-Sep-28 08:00S 41°12' E 146°24'0 0.0 030 / 3 13.7 12.2
2020-Sep-28 07:00S 41°12' E 146°24'0 0.0 320 / 8 13.7 12.2
2020-Sep-28 06:00S 41°12' E 146°24'0 0.0 320 / 11 13.4 12.1
2020-Sep-28 05:00S 41°12' E 146°24'0 0.0 320 / 11 14.3 12.1
2020-Sep-28 04:00S 41°12' E 146°24'0 0.0 330 / 11 13.3 12.1
2020-Sep-28 03:00S 41°12' E 146°24'223.8 340 / 11 13.5 12.0
2020-Sep-28 02:55S 41°11' E 146°22'2 2.1
2020-Sep-28 02:00S 41°12' E 146°24'2 3.2 010 / 8 14.0 11.9
2020-Sep-28 01:24S 41°11' E 146°22'0 0.0
2020-Sep-28 01:00S 41°11' E 146°22'2362.3
2020-Sep-28 01:00S 41°12' E 146°24'0 0.0 350 / 6 12.3 12.0
2020-Sep-28 00:00S 41°12' E 146°24'0 0.0 170 / 5 12.6 12.0
2020-Sep-27 22:00S 41°12' E 146°24'2122.7 150 / 2 8.5 11.9
2020-Sep-27 21:59S 41°11' E 146°22'2 1.9
2020-Sep-27 21:00S 41°12' E 146°24'0 0.0 170 / 1 4.5 11.9
2020-Sep-27 20:00S 41°12' E 146°24'261.3 170 / 3 4.0 11.9
2020-Sep-27 19:58S 41°11' E 146°22'2 2.0
2020-Sep-27 19:00S 41°12' E 146°24'250.9 160 / 4 5.3 11.9
2020-Sep-27 18:57S 41°11' E 146°22'2 2.0
2020-Sep-27 18:00S 41°12' E 146°24'0 0.0 170 / 7 8.0 11.8
2020-Sep-27 17:00S 41°12' E 146°24'236.7 190 / 9 8.3 11.6
2020-Sep-27 16:56S 41°11' E 146°22'2 2.0
2020-Sep-27 16:00S 41°12' E 146°24'0 0.0 200 / 17 8.5 11.5
2020-Sep-27 15:00S 41°12' E 146°24'0 0.0 200 / 15 8.6 11.5
2020-Sep-27 14:00S 41°12' E 146°24'225.7 200 / 13 8.4 11.6
2020-Sep-27 13:55S 41°11' E 146°22'2 2.1
2020-Sep-27 13:00S 41°12' E 146°24'223.4 220 / 9 8.7 11.7
2020-Sep-27 12:55S 41°11' E 146°22'2 2.1
2020-Sep-27 12:00S 41°12' E 146°24'0 0.0 230 / 14 8.7 11.9
2020-Sep-27 11:00S 41°12' E 146°24'0 0.0 220 / 15 9.2 12.0
2020-Sep-27 10:00S 41°12' E 146°24'2624.6 250 / 7 9.1 12.1
2020-Sep-27 09:59S 41°11' E 146°22'2 1.9
2020-Sep-27 09:00S 41°12' E 146°24'0 0.0 240 / 7 9.9 12.1
2020-Sep-27 08:00S 41°12' E 146°24'2 3.7 250 / 12 11.3 11.9
2020-Sep-27 07:28S 41°11' E 146°22'2 4.0
2020-Sep-27 07:00S 41°12' E 146°24'0 0.0 240 / 13 12.2 11.9
2020-Sep-27 06:00S 41°12' E 146°24'0 0.0 240 / 12 12.7 11.8
2020-Sep-27 05:00S 41°12' E 146°24'0 0.0 250 / 14 12.4 11.6
2020-Sep-27 04:00S 41°12' E 146°24'0 0.0 240 / 10 12.7 11.6
2020-Sep-27 03:00S 41°12' E 146°24'235.4 230 / 14 12.0 11.6
2020-Sep-27 02:56S 41°11' E 146°22'2 2.0
2020-Sep-27 02:00S 41°12' E 146°24'0 0.0 220 / 12 11.7 11.4
2020-Sep-27 01:00S 41°12' E 146°24'0 0.0 210 / 10 11.0 11.4
2020-Sep-27 00:00S 41°12' E 146°24'0 0.0 230 / 8 10.6 11.7
2020-Sep-26 23:00S 41°12' E 146°24'223.1 260 / 6 8.9 11.8
2020-Sep-26 22:55S 41°11' E 146°22'2 2.1
2020-Sep-26 22:00S 41°12' E 146°24'0 0.0 280 / 5 7.8 11.9
2020-Sep-26 21:00S 41°12' E 146°24'6 6.0 270 / 5 5.9 12.1
2020-Sep-26 20:00S 41°06' E 146°24'1817.9 250 / 17 6.7 11.9
2020-Sep-26 19:01S 40°51' E 146°12'3185.1
2020-Sep-26 19:00S 40°48' E 146°12'2322.6 230 / 31 7.5
2020-Sep-26 18:00S 40°30' E 145°54'2625.7 210 / 35 8.1 12.3
2020-Sep-26 17:00S 40°06' E 145°42'2020.2 220 / 32 8.6 12.3
2020-Sep-26 16:00S 39°48' E 145°30'1918.6 210 / 33 9.0 12.8
2020-Sep-26 15:00S 39°30' E 145°24'2020.3 210 / 32 9.6 13.0
2020-Sep-26 14:00S 39°12' E 145°12'2020.3 210 / 36 10.4 13.0
2020-Sep-26 13:00S 38°54' E 145°00'1515.2 220 / 34 10.5 13.0
2020-Sep-26 12:00S 38°42' E 144°48'2625.8 240 / 35 10.8 13.0
2020-Sep-26 11:00S 38°18' E 144°36'1414.1 270 / 29 10.6 13.0
2020-Sep-26 10:00S 38°18' E 144°54'1818.0 260 / 35 10.4 13.2
2020-Sep-26 09:00S 38°00' E 144°54'1212.0 270 / 26 10.9 13.2
2020-Sep-26 08:00S 37°48' E 144°54'0 0.0 260 / 14 10.8 13.1
2020-Sep-26 07:00S 37°48' E 144°54'0 0.0 270 / 18 12.4 13.1
2020-Sep-26 06:00S 37°48' E 144°54'0 0.0 240 / 11 11.9 13.0
2020-Sep-26 05:00S 37°48' E 144°54'0 0.0 230 / 9 10.9 12.9
2020-Sep-26 04:00S 37°48' E 144°54'0 0.0 210 / 8 11.7 12.8
2020-Sep-26 03:00S 37°48' E 144°54'0 0.0 250 / 9 11.4 12.6
2020-Sep-26 02:00S 37°48' E 144°54'0 0.0 250 / 13 11.1 12.5
2020-Sep-26 01:00S 37°48' E 144°54'0 0.0 250 / 15 10.5 12.4
2020-Sep-26 00:00S 37°48' E 144°54'0 0.0 250 / 12 10.6 12.4
2020-Sep-25 23:00S 37°48' E 144°54'0 0.0 240 / 17 10.2 12.4
2020-Sep-25 22:00S 37°48' E 144°54'0 0.0 260 / 17 8.9 12.5
2020-Sep-25 21:00S 37°48' E 144°54'6 6.0 260 / 20 8.4 13.1
2020-Sep-25 20:00S 37°54' E 144°54'2424.0 220 / 34 9.7 12.9
2020-Sep-25 19:00S 38°18' E 144°54'1414.1 210 / 28 10.6
2020-Sep-25 18:00S 38°18' E 144°36'2020.3 210 / 32 10.8 13.0
2020-Sep-25 17:00S 38°36' E 144°48'2020.3 210 / 32 10.9 12.9
2020-Sep-25 16:00S 38°54' E 145°00'2020.3 230 / 33 9.4 13.1
2020-Sep-25 15:00S 39°12' E 145°12'2020.3 240 / 23 10.0 13.2
2020-Sep-25 14:00S 39°30' E 145°24'1918.6 250 / 26 10.3 13.1
2020-Sep-25 13:00S 39°48' E 145°30'2322.7 240 / 24 9.9 12.8
2020-Sep-25 12:00S 40°06' E 145°48'2625.7 230 / 14 9.0 12.4
2020-Sep-25 11:00S 40°30' E 146°00'2625.7 140 / 7 9.6 12.4
2020-Sep-25 10:00S 40°54' E 146°12'2020.1 130 / 11 8.7 12.3
2020-Sep-25 09:00S 41°12' E 146°24'0 0.0 170 / 7 7.7 12.7
2020-Sep-25 08:00S 41°12' E 146°24'0 0.0 180 / 10 8.2 12.0
2020-Sep-25 07:00S 41°12' E 146°24'0 0.0 170 / 9 8.6 12.0
2020-Sep-25 06:00S 41°12' E 146°24'0 0.0 170 / 10 8.5 11.9
2020-Sep-25 05:00S 41°12' E 146°24'0 0.0 140 / 9 8.1 11.9
2020-Sep-25 04:00S 41°12' E 146°24'0 0.0 180 / 4 8.4
2020-Sep-25 03:00S 41°12' E 146°24'0 0.0 080 / 3 8.6 11.8
2020-Sep-25 02:00S 41°12' E 146°24'0 0.0 030 / 9 8.7 11.8
2020-Sep-25 01:00S 41°12' E 146°24'0 0.0 040 / 7 8.5 11.8
2020-Sep-25 00:00S 41°12' E 146°24'0 0.0 050 / 8 9.0 11.9
2020-Sep-24 23:00S 41°12' E 146°24'0 0.0 030 / 11 9.7 11.9
2020-Sep-24 22:00S 41°12' E 146°24'6 3.0 350 / 10 9.3 12.1
2020-Sep-24 20:00S 41°06' E 146°24'2020.2 050 / 14 9.7
2020-Sep-24 19:00S 40°48' E 146°12'2020.2 040 / 23 9.6 12.3
2020-Sep-24 18:00S 40°30' E 146°00'1515.1 010 / 25 10.2
2020-Sep-24 17:00S 40°18' E 145°48'2020.2 360 / 29 10.2 12.4
2020-Sep-24 16:00S 40°00' E 145°36'2625.7 360 / 28 11.1 12.9
2020-Sep-24 15:00S 39°36' E 145°24'2020.2 360 / 28 11.3 13.1
2020-Sep-24 14:00S 39°18' E 145°12'5326.7 340 / 28 11.0 13.2
2020-Sep-24 12:00S 38°30' E 144°42'1312.9 350 / 26 10.6 13.2
2020-Sep-24 11:00S 38°18' E 144°48'1312.9 010 / 39 12.2 13.4
2020-Sep-24 10:00S 38°06' E 144°54'1818.0 360 / 18 12.0 13.3
2020-Sep-24 09:00S 37°48' E 144°54'0 0.0 360 / 13 12.4 14.5
2020-Sep-24 08:00S 37°48' E 144°54'0 0.0 010 / 14 12.8 13.3
2020-Sep-24 07:00S 37°48' E 144°54'0 0.0 350 / 14 13.4 13.3
2020-Sep-24 06:00S 37°48' E 144°54'0 0.0 360 / 13 13.4 13.5
2020-Sep-24 05:00S 37°48' E 144°54'0 0.0 350 / 13 13.5 13.5
2020-Sep-24 04:00S 37°48' E 144°54'0 0.0 330 / 12 13.2 13.5
2020-Sep-24 03:00S 37°48' E 144°54'0 0.0 310 / 9 13.2 13.4
2020-Sep-24 02:00S 37°48' E 144°54'0 0.0 300 / 12 12.0 13.3
2020-Sep-24 01:00S 37°48' E 144°54'0 0.0 300 / 15 11.8
2020-Sep-24 00:00S 37°48' E 144°54'0 0.0 300 / 13 10.8 13.2
2020-Sep-23 23:00S 37°48' E 144°54'0 0.0 310 / 11 9.9 13.2
2020-Sep-23 22:00S 37°48' E 144°54'0 0.0 320 / 8 8.7 13.3
2020-Sep-23 21:00S 37°48' E 144°54'6 6.0 320 / 9 8.0 13.3
2020-Sep-23 20:00S 37°54' E 144°54'1818.0 300 / 18 8.5
2020-Sep-23 19:00S 38°12' E 144°54'1515.4 290 / 25 8.2 13.5
2020-Sep-23 18:00S 38°18' E 144°36'2020.3 300 / 22 7.9 13.1
2020-Sep-23 17:00S 38°36' E 144°48'2020.3 260 / 23 9.4 12.9
2020-Sep-23 16:00S 38°54' E 145°00'2020.3 260 / 32 9.9 13.0
2020-Sep-23 15:00S 39°12' E 145°12'2020.3 250 / 27 10.3 13.2
2020-Sep-23 14:00S 39°30' E 145°24'2020.2 260 / 31 10.5 13.1
2020-Sep-23 13:00S 39°48' E 145°36'2625.7 260 / 26 10.2 12.8
2020-Sep-23 12:00S 40°12' E 145°48'1818.3 250 / 26 10.6 12.5
2020-Sep-23 11:00S 40°28' E 145°59'2154.7
2020-Sep-23 11:00S 40°30' E 146°00'1019.9 250 / 29 10.9 12.6
2020-Sep-23 10:30S 40°39' E 146°05'1631.2
2020-Sep-23 10:00S 40°54' E 146°12'2020.1 270 / 27 11.4
2020-Sep-23 09:00S 41°12' E 146°24'0 0.0 250 / 10 12.1 14.2
2020-Sep-23 08:00S 41°12' E 146°24'0 0.0 260 / 10 13.2 12.5
2020-Sep-23 07:00S 41°12' E 146°24'0 0.0 230 / 14 14.4 12.5
2020-Sep-23 06:00S 41°12' E 146°24'0 0.0 230 / 14 14.6
2020-Sep-23 05:00S 41°12' E 146°24'0 0.0 260 / 18 15.0 12.4
2020-Sep-23 04:00S 41°12' E 146°24'0 0.0 250 / 15 15.0 12.4
2020-Sep-23 03:00S 41°12' E 146°24'2 1.9 260 / 17 14.4 12.4
2020-Sep-23 02:00S 41°11' E 146°22'2624.6
2020-Sep-23 02:00S 41°12' E 146°24'0 0.0 270 / 16 14.4 12.5
2020-Sep-23 01:00S 41°12' E 146°24'2 0.9 270 / 16 14.5 12.5
2020-Sep-22 22:58S 41°11' E 146°22'44 1.2
2020-Sep-21 10:30S 40°30' E 145°59'4422.1
2020-Sep-21 08:30S 41°11' E 146°22'0 0.0
2020-Sep-21 07:30S 41°11' E 146°22'  

Dump ship's entire track history